createdAt,value
2024-05-09T00:00:36.409Z,11.03
2024-05-09T00:03:08.432Z,10.64
2024-05-09T00:05:36.818Z,10.67
2024-05-09T00:08:04.283Z,10.81
2024-05-09T00:10:36.383Z,10.88
2024-05-09T00:13:06.958Z,10.91
2024-05-09T00:15:34.791Z,10.83
2024-05-09T00:18:02.386Z,10.93
2024-05-09T00:20:37.371Z,10.80
2024-05-09T00:23:08.065Z,10.96
2024-05-09T00:25:35.568Z,10.78
2024-05-09T00:28:02.934Z,10.78
2024-05-09T00:30:34.590Z,10.76
2024-05-09T00:33:08.693Z,10.76
2024-05-09T00:35:37.206Z,10.68
2024-05-09T00:38:04.731Z,10.83
2024-05-09T00:40:41.759Z,10.60
2024-05-09T00:43:12.201Z,10.63
2024-05-09T00:45:40.017Z,10.58
2024-05-09T00:48:09.397Z,10.14
2024-05-09T00:50:42.371Z,10.66
2024-05-09T00:53:15.639Z,10.58
2024-05-09T00:55:43.387Z,10.56
2024-05-09T00:58:14.367Z,10.70
2024-05-09T01:00:41.790Z,10.69
2024-05-09T01:03:11.995Z,10.58
2024-05-09T01:05:40.773Z,10.44
2024-05-09T01:08:08.514Z,10.79
2024-05-09T01:10:36.714Z,10.61
2024-05-09T01:13:04.951Z,10.44
2024-05-09T01:15:32.035Z,10.67
2024-05-09T01:18:01.926Z,10.96
2024-05-09T01:20:39.180Z,10.51
2024-05-09T01:23:10.065Z,10.80
2024-05-09T01:25:37.063Z,10.64
2024-05-09T01:28:04.167Z,10.85
2024-05-09T01:30:35.547Z,10.51
2024-05-09T01:33:09.703Z,10.40
2024-05-09T01:35:41.688Z,10.45
2024-05-09T01:38:12.132Z,10.54
2024-05-09T01:40:40.335Z,10.68
2024-05-09T01:43:11.654Z,10.66
2024-05-09T01:45:40.224Z,10.78
2024-05-09T01:48:08.440Z,10.72
2024-05-09T01:50:39.855Z,10.48
2024-05-09T01:53:10.707Z,10.63
2024-05-09T01:55:37.742Z,10.70
2024-05-09T01:58:04.708Z,10.64
2024-05-09T02:00:38.780Z,10.50
2024-05-09T02:03:11.045Z,10.42
2024-05-09T02:05:40.262Z,10.42
2024-05-09T02:08:07.455Z,10.70
2024-05-09T02:10:34.265Z,10.59
2024-05-09T02:13:01.142Z,10.59
2024-05-09T02:15:27.919Z,10.93
2024-05-09T02:17:55.331Z,10.72
2024-05-09T02:20:30.570Z,10.32
2024-05-09T02:23:04.468Z,10.42
2024-05-09T02:25:32.361Z,10.76
2024-05-09T02:27:59.449Z,10.45
2024-05-09T02:30:36.102Z,10.47
2024-05-09T02:33:08.309Z,10.44
2024-05-09T02:35:36.094Z,10.68
2024-05-09T02:38:03.270Z,10.47
2024-05-09T02:40:36.665Z,10.50
2024-05-09T02:43:06.920Z,10.65
2024-05-09T02:45:33.941Z,10.43
2024-05-09T02:48:01.698Z,10.38
2024-05-09T02:50:37.140Z,10.51
2024-05-09T02:53:07.512Z,10.42
2024-05-09T02:55:34.909Z,10.51
2024-05-09T02:58:02.012Z,10.31
2024-05-09T03:00:37.390Z,10.27
2024-05-09T03:03:12.863Z,10.36
2024-05-09T03:05:42.568Z,10.38
2024-05-09T03:08:09.646Z,10.40
2024-05-09T03:10:38.615Z,10.41
2024-05-09T03:13:07.741Z,10.21
2024-05-09T03:15:34.591Z,10.31
2024-05-09T03:18:02.570Z,10.27
2024-05-09T03:20:34.187Z,10.20
2024-05-09T03:23:03.148Z,10.18
2024-05-09T03:25:30.071Z,10.26
2024-05-09T03:27:56.963Z,10.38
2024-05-09T03:30:38.681Z,10.33
2024-05-09T03:33:15.288Z,10.24
2024-05-09T03:35:46.169Z,10.33
2024-05-09T03:38:13.118Z,10.27
2024-05-09T03:40:48.026Z,10.39
2024-05-09T03:43:15.777Z,10.21
2024-05-09T03:45:48.181Z,10.23
2024-05-09T03:48:15.116Z,10.36
2024-05-09T03:50:42.072Z,10.22
2024-05-09T03:53:13.142Z,10.18
2024-05-09T03:55:40.283Z,10.30
2024-05-09T03:58:08.052Z,10.12
2024-05-09T04:00:38.957Z,10.29
2024-05-09T04:03:09.946Z,10.27
2024-05-09T04:05:41.014Z,10.36
2024-05-09T04:08:09.542Z,10.52
2024-05-09T04:10:36.397Z,10.48
2024-05-09T04:13:04.342Z,10.50
2024-05-09T04:15:31.771Z,10.49
2024-05-09T04:17:58.861Z,10.59
2024-05-09T04:20:36.011Z,10.73
2024-05-09T04:23:07.530Z,10.71
2024-05-09T04:25:35.235Z,10.77
2024-05-09T04:28:02.118Z,10.81
2024-05-09T04:30:36.573Z,10.78
2024-05-09T04:33:08.258Z,10.89
2024-05-09T04:35:37.326Z,10.91
2024-05-09T04:38:04.985Z,11.04
2024-05-09T04:40:35.174Z,11.17
2024-05-09T04:43:05.133Z,11.21
2024-05-09T04:45:32.421Z,11.28
2024-05-09T04:47:59.308Z,11.42
2024-05-09T04:50:35.373Z,11.82
2024-05-09T04:53:05.652Z,12.17
2024-05-09T04:55:35.797Z,13.09
2024-05-09T04:58:02.844Z,14.12
2024-05-09T05:00:35.912Z,14.19
2024-05-09T05:03:12.781Z,14.17
2024-05-09T05:05:42.699Z,13.45
2024-05-09T05:08:13.985Z,12.08
2024-05-09T05:10:41.697Z,12.47
2024-05-09T05:13:21.910Z,12.40
2024-05-09T05:15:52.042Z,12.18
2024-05-09T05:18:19.318Z,12.12
2024-05-09T05:20:47.246Z,12.26
2024-05-09T05:23:16.078Z,12.12
2024-05-09T05:25:43.298Z,12.42
2024-05-09T05:28:10.810Z,11.87
2024-05-09T05:30:38.556Z,12.35
2024-05-09T05:33:06.690Z,12.84
2024-05-09T05:35:34.684Z,13.02
2024-05-09T05:38:01.897Z,15.44
2024-05-09T05:40:36.138Z,15.36
2024-05-09T05:43:06.475Z,15.46
2024-05-09T05:45:33.100Z,16.94
2024-05-09T05:48:00.443Z,18.16
2024-05-09T05:50:35.125Z,17.59
2024-05-09T05:53:09.030Z,19.34
2024-05-09T05:55:40.460Z,19.92
2024-05-09T05:58:11.131Z,19.77
2024-05-09T06:00:40.172Z,21.08
2024-05-09T06:03:09.665Z,21.65
2024-05-09T06:05:38.700Z,21.29
2024-05-09T06:08:06.160Z,19.06
2024-05-09T06:10:38.303Z,21.23
2024-05-09T06:13:07.811Z,21.39
2024-05-09T06:15:34.652Z,21.72
2024-05-09T06:18:01.773Z,20.67
2024-05-09T06:20:35.739Z,20.59
2024-05-09T06:23:06.177Z,20.41
2024-05-09T06:25:33.653Z,20.27
2024-05-09T06:28:01.151Z,20.61
2024-05-09T06:30:36.901Z,20.03
2024-05-09T06:33:08.818Z,19.45
2024-05-09T06:35:36.963Z,20.20
2024-05-09T06:38:04.064Z,19.30
2024-05-09T06:40:37.300Z,19.32
2024-05-09T06:43:11.579Z,19.30
2024-05-09T06:45:39.882Z,19.62
2024-05-09T06:48:08.706Z,20.08
2024-05-09T06:50:38.093Z,19.38
2024-05-09T06:53:07.478Z,19.71
2024-05-09T06:55:34.597Z,19.58
2024-05-09T06:58:02.872Z,19.39
2024-05-09T07:00:35.954Z,19.57
2024-05-09T07:03:11.623Z,19.96
2024-05-09T07:05:40.320Z,19.22
2024-05-09T07:08:07.647Z,18.06
2024-05-09T07:10:36.177Z,18.86
2024-05-09T07:13:08.381Z,19.00
2024-05-09T07:15:35.076Z,19.19
2024-05-09T07:18:15.517Z,18.91
2024-05-09T07:20:43.236Z,18.86
2024-05-09T07:23:10.704Z,18.42
2024-05-09T07:25:38.328Z,18.32
2024-05-09T07:28:05.610Z,18.59
2024-05-09T07:30:34.499Z,18.10
2024-05-09T07:33:03.094Z,18.78
2024-05-09T07:35:31.061Z,17.52
2024-05-09T07:37:58.103Z,17.97
2024-05-09T07:40:32.842Z,18.16
2024-05-09T07:43:13.235Z,18.11
2024-05-09T07:45:49.589Z,18.53
2024-05-09T07:52:37.661Z,18.06
2024-05-09T07:53:47.993Z,18.14
2024-05-09T07:56:18.926Z,18.57
2024-05-09T07:58:47.370Z,18.00
2024-05-09T08:01:14.319Z,18.52
2024-05-09T08:03:41.156Z,19.04
2024-05-09T08:06:08.204Z,18.79
2024-05-09T08:08:34.778Z,18.53
2024-05-09T08:11:02.632Z,18.73
2024-05-09T08:13:29.761Z,18.76
2024-05-09T08:15:56.455Z,18.77
2024-05-09T08:18:23.375Z,19.33
2024-05-09T08:20:51.777Z,19.33
2024-05-09T08:23:18.503Z,19.69
2024-05-09T08:25:45.258Z,20.37
2024-05-09T08:28:13.019Z,20.01
2024-05-09T08:30:39.824Z,20.38
2024-05-09T08:33:07.600Z,19.86
2024-05-09T08:35:35.559Z,19.79
2024-05-09T08:38:06.641Z,19.89
2024-05-09T08:40:36.328Z,20.46
2024-05-09T08:43:12.873Z,20.73
2024-05-09T08:45:44.739Z,19.48
2024-05-09T08:48:15.101Z,20.16
2024-05-09T08:50:43.409Z,20.11
2024-05-09T08:53:10.307Z,19.80
2024-05-09T08:55:41.518Z,20.09
2024-05-09T08:58:16.645Z,20.04
2024-05-09T09:00:44.725Z,20.20
2024-05-09T09:03:17.370Z,20.03
2024-05-09T09:06:02.465Z,20.11
2024-05-09T09:08:29.087Z,20.49
2024-05-09T09:10:58.426Z,20.36
2024-05-09T09:13:25.759Z,20.57
2024-05-09T09:15:57.419Z,20.32
2024-05-09T09:18:26.743Z,18.42
2024-05-09T09:20:54.043Z,18.95
2024-05-09T09:23:20.932Z,20.01
2024-05-09T09:25:47.940Z,18.88
2024-05-09T09:28:14.953Z,18.05
2024-05-09T09:30:42.997Z,17.88
2024-05-09T09:33:10.445Z,18.01
2024-05-09T09:35:39.975Z,17.99
2024-05-09T09:38:07.637Z,17.78
2024-05-09T09:40:45.790Z,17.83
2024-05-09T09:43:21.412Z,18.15
2024-05-09T09:45:51.204Z,19.28
2024-05-09T09:48:19.888Z,19.62
2024-05-09T09:50:48.507Z,18.92
2024-05-09T09:53:16.447Z,19.96
2024-05-09T09:55:43.807Z,19.61
2024-05-09T09:58:14.056Z,20.04
2024-05-09T10:00:42.016Z,19.78
2024-05-09T10:03:09.102Z,19.66
2024-05-09T10:05:36.834Z,20.19
2024-05-09T10:08:07.478Z,20.70
2024-05-09T10:10:35.886Z,19.43
2024-05-09T10:13:07.388Z,19.47
2024-05-09T10:16:10.580Z,18.97
2024-05-09T10:18:39.238Z,19.14
2024-05-09T10:21:20.365Z,19.95
2024-05-09T10:23:59.987Z,20.63
2024-05-09T10:26:37.947Z,20.87
2024-05-09T10:29:13.063Z,19.63
2024-05-09T10:31:44.447Z,18.12
2024-05-09T10:34:22.785Z,18.80
2024-05-09T10:36:56.683Z,18.47
2024-05-09T10:39:25.235Z,19.03
2024-05-09T10:41:51.947Z,18.07
2024-05-09T10:44:18.753Z,17.56
2024-05-09T10:46:46.373Z,17.67
2024-05-09T10:49:16.434Z,19.23
2024-05-09T10:51:44.859Z,19.02
2024-05-09T10:54:11.716Z,18.42
2024-05-09T10:56:38.434Z,19.73
2024-05-09T10:59:05.770Z,20.16
2024-05-09T11:01:32.745Z,19.74
2024-05-09T11:03:59.843Z,20.21
2024-05-09T11:06:28.818Z,19.72
2024-05-09T11:08:56.751Z,19.80
2024-05-09T11:11:23.546Z,18.76
2024-05-09T11:13:50.159Z,19.27
2024-05-09T11:16:21.498Z,20.07
2024-05-09T11:18:56.300Z,19.61
2024-05-09T11:21:24.295Z,18.64
2024-05-09T11:23:51.568Z,19.00
2024-05-09T11:26:21.373Z,19.55
2024-05-09T11:28:48.480Z,20.71
2024-05-09T11:31:15.288Z,21.14
2024-05-09T11:33:48.039Z,21.19
2024-05-09T11:36:15.804Z,20.10
2024-05-09T11:38:43.063Z,20.74
2024-05-09T11:41:17.327Z,21.05
2024-05-09T11:43:44.415Z,21.02
2024-05-09T11:46:11.194Z,21.52
2024-05-09T11:48:39.726Z,19.99
2024-05-09T11:51:06.533Z,19.85
2024-05-09T11:53:33.118Z,20.63
2024-05-09T11:56:00.604Z,19.75
2024-05-09T11:58:29.823Z,19.79
2024-05-09T12:00:57.220Z,20.75
2024-05-09T12:03:24.193Z,20.42
2024-05-09T12:05:51.024Z,19.69
2024-05-09T12:08:17.817Z,19.89
2024-05-09T12:10:44.952Z,19.99
2024-05-09T12:13:11.871Z,20.19
2024-05-09T12:15:39.219Z,19.91
2024-05-09T12:18:07.646Z,20.88
2024-05-09T12:20:38.235Z,21.42
2024-05-09T12:23:08.424Z,21.69
2024-05-09T12:25:36.881Z,21.92
2024-05-09T12:28:04.022Z,22.49
2024-05-09T12:30:36.735Z,21.57
2024-05-09T12:33:14.018Z,21.96
2024-05-09T12:35:44.307Z,21.87
2024-05-09T12:38:14.762Z,22.54
2024-05-09T12:40:42.420Z,21.28
2024-05-09T12:43:10.499Z,20.73
2024-05-09T12:45:38.833Z,21.05
2024-05-09T12:48:08.560Z,21.06
2024-05-09T12:50:35.828Z,21.47
2024-05-09T12:53:04.216Z,21.14
2024-05-09T12:55:40.506Z,21.65
2024-05-09T12:58:16.761Z,21.77
2024-05-09T13:00:44.665Z,20.91
2024-05-09T13:03:11.458Z,20.89
2024-05-09T13:05:41.107Z,21.32
2024-05-09T13:08:08.180Z,21.30
2024-05-09T13:10:34.994Z,21.67
2024-05-09T13:13:02.392Z,21.24
2024-05-09T13:15:34.603Z,20.36
2024-05-09T13:18:03.220Z,20.87
2024-05-09T13:20:34.218Z,21.76
2024-05-09T13:23:07.521Z,22.02
2024-05-09T13:25:36.125Z,21.70
2024-05-09T13:28:07.601Z,20.74
2024-05-09T13:30:39.940Z,21.15
2024-05-09T13:33:13.600Z,21.26
2024-05-09T13:35:46.825Z,21.48
2024-05-09T13:38:17.584Z,21.49
2024-05-09T13:40:44.836Z,20.76
2024-05-09T13:43:11.883Z,21.21
2024-05-09T13:45:38.695Z,21.99
2024-05-09T13:48:06.882Z,21.96
2024-05-09T13:50:36.202Z,22.30
2024-05-09T13:53:08.201Z,22.42
2024-05-09T13:55:39.801Z,21.53
2024-05-09T13:58:07.785Z,22.34
2024-05-09T14:03:05.115Z,21.62
2024-05-09T14:05:32.077Z,21.73
2024-05-09T14:07:58.800Z,21.57
2024-05-09T14:10:30.978Z,21.48
2024-05-09T14:12:58.939Z,21.13
2024-05-09T14:15:25.607Z,20.86
2024-05-09T14:17:52.432Z,21.38
2024-05-09T14:20:28.578Z,22.08
2024-05-09T14:22:58.541Z,21.64
2024-05-09T14:25:28.407Z,21.63
2024-05-09T14:27:56.100Z,21.87
2024-05-09T14:30:30.661Z,21.49
2024-05-09T14:33:04.030Z,21.42
2024-05-09T14:35:30.826Z,21.03
2024-05-09T14:37:57.536Z,20.14
2024-05-09T14:42:54.037Z,20.92
2024-05-09T14:45:20.704Z,21.76
2024-05-09T14:47:47.662Z,20.83
2024-05-09T14:50:23.644Z,20.58
2024-05-09T14:52:55.187Z,20.92
2024-05-09T14:55:21.766Z,20.08
2024-05-09T14:57:48.711Z,20.77
2024-05-09T15:00:24.738Z,20.17
2024-05-09T15:02:53.174Z,20.41
2024-05-09T15:05:20.103Z,19.99
2024-05-09T15:07:46.808Z,19.97
2024-05-09T15:10:20.429Z,20.21
2024-05-09T15:12:50.923Z,19.94
2024-05-09T15:15:17.985Z,20.61
2024-05-09T15:17:44.895Z,20.91
2024-05-09T15:20:17.051Z,21.03
2024-05-09T15:22:46.952Z,20.79
2024-05-09T15:25:14.214Z,21.53
2024-05-09T15:27:40.974Z,21.40
2024-05-09T15:30:10.766Z,21.73
2024-05-09T15:32:38.124Z,21.36
2024-05-09T15:35:05.532Z,21.21
2024-05-09T15:37:32.382Z,21.62
2024-05-09T15:39:59.438Z,21.64
2024-05-09T15:42:26.070Z,21.32
2024-05-09T15:44:53.087Z,21.28
2024-05-09T15:47:20.540Z,20.83
2024-05-09T15:49:47.732Z,21.00
2024-05-09T15:52:17.785Z,21.12
2024-05-09T15:54:44.734Z,20.48
2024-05-09T15:57:12.177Z,20.18
2024-05-09T15:59:39.005Z,19.72
2024-05-09T16:02:06.089Z,19.57
2024-05-09T16:04:32.981Z,19.17
2024-05-09T16:06:59.743Z,19.16
2024-05-09T16:09:26.917Z,19.45
2024-05-09T16:11:53.553Z,19.44
2024-05-09T16:14:20.185Z,19.55
2024-05-09T16:16:47.149Z,19.37
2024-05-09T16:19:14.022Z,19.68
2024-05-09T16:21:40.841Z,19.86
2024-05-09T16:24:07.761Z,19.77
2024-05-09T16:26:34.691Z,19.92
2024-05-09T16:29:01.467Z,20.01
2024-05-09T16:31:28.459Z,19.94
2024-05-09T16:33:55.183Z,19.93
2024-05-09T16:36:21.886Z,19.52
2024-05-09T16:38:48.739Z,19.67
2024-05-09T16:41:15.563Z,19.34
2024-05-09T16:43:42.179Z,19.33
2024-05-09T16:46:09.161Z,19.03
2024-05-09T16:48:37.172Z,18.47
2024-05-09T16:51:03.999Z,18.85
2024-05-09T16:53:30.673Z,18.94
2024-05-09T16:55:57.540Z,19.01
2024-05-09T16:58:24.893Z,18.73
2024-05-09T17:00:51.854Z,18.69
2024-05-09T17:03:18.684Z,18.76
2024-05-09T17:05:46.920Z,18.67
2024-05-09T17:08:15.521Z,18.38
2024-05-09T17:10:42.419Z,18.47
2024-05-09T17:13:10.042Z,18.34
2024-05-09T17:15:37.624Z,18.35
2024-05-09T17:18:06.257Z,18.23
2024-05-09T17:20:36.157Z,18.35
2024-05-09T17:23:06.089Z,17.90
2024-05-09T17:25:33.912Z,17.87
2024-05-09T17:28:07.177Z,17.81
2024-05-09T17:30:37.569Z,17.89
2024-05-09T17:33:07.787Z,17.66
2024-05-09T17:35:38.561Z,17.63
2024-05-09T17:38:06.264Z,17.25
2024-05-09T17:40:36.208Z,17.03
2024-05-09T17:43:06.792Z,16.93
2024-05-09T17:45:36.719Z,16.64
2024-05-09T17:48:03.696Z,16.88
2024-05-09T17:50:35.233Z,16.67
2024-05-09T17:53:07.248Z,16.51
2024-05-09T17:55:34.990Z,16.41
2024-05-09T17:58:02.292Z,16.28
2024-05-09T18:00:37.284Z,16.23
2024-05-09T18:03:07.832Z,16.33
2024-05-09T18:05:36.364Z,16.25
2024-05-09T18:08:03.989Z,15.95
2024-05-09T18:10:36.631Z,16.14
2024-05-09T18:13:07.570Z,16.17
2024-05-09T18:15:34.695Z,15.82
2024-05-09T18:18:02.488Z,15.77
2024-05-09T18:20:38.085Z,15.54
2024-05-09T18:23:11.076Z,15.81
2024-05-09T18:25:37.814Z,15.16
2024-05-09T18:28:05.532Z,15.07
2024-05-09T18:30:35.416Z,14.90
2024-05-09T18:33:07.999Z,14.78
2024-05-09T18:35:36.258Z,14.82
2024-05-09T18:38:03.902Z,14.80
2024-05-09T18:40:34.660Z,14.29
2024-05-09T18:43:06.878Z,14.58
2024-05-09T18:45:35.675Z,14.34
2024-05-09T18:48:05.136Z,14.36
2024-05-09T18:50:36.836Z,14.20
2024-05-09T18:53:06.466Z,14.17
2024-05-09T18:55:33.282Z,14.06
2024-05-09T18:58:00.281Z,13.93
2024-05-09T19:00:34.515Z,14.00
2024-05-09T19:03:08.057Z,13.91
2024-05-09T19:05:36.439Z,13.76
2024-05-09T19:08:03.578Z,13.59
2024-05-09T19:10:34.401Z,13.52
2024-05-09T19:13:06.805Z,13.10
2024-05-09T19:15:38.318Z,13.17
2024-05-09T19:18:06.316Z,13.39
2024-05-09T19:20:35.268Z,13.43
2024-05-09T19:23:03.932Z,13.12
2024-05-09T19:25:30.910Z,13.04
2024-05-09T19:27:57.725Z,13.02
2024-05-09T19:30:33.759Z,12.79
2024-05-09T19:33:06.244Z,12.83
2024-05-09T19:35:33.106Z,12.44
2024-05-09T19:38:00.148Z,12.55
2024-05-09T19:40:31.510Z,12.53
2024-05-09T19:43:05.016Z,12.66
2024-05-09T19:45:33.907Z,11.90
2024-05-09T19:48:01.883Z,12.12
2024-05-09T19:50:37.012Z,12.28
2024-05-09T19:53:10.215Z,12.25
2024-05-09T19:55:37.575Z,11.99
2024-05-09T19:58:06.948Z,12.35
2024-05-09T20:00:40.381Z,11.85
2024-05-09T20:03:10.107Z,12.15
2024-05-09T20:05:38.065Z,12.09
2024-05-09T20:08:06.124Z,11.79
2024-05-09T20:10:35.226Z,11.61
2024-05-09T20:13:04.771Z,11.29
2024-05-09T20:15:34.834Z,11.79
2024-05-09T20:18:02.175Z,11.58
2024-05-09T20:20:37.078Z,11.28
2024-05-09T20:23:07.858Z,11.69
2024-05-09T20:25:34.995Z,11.29
2024-05-09T20:28:01.808Z,11.16
2024-05-09T20:30:32.444Z,11.34
2024-05-09T20:33:07.095Z,11.40
2024-05-09T20:35:35.446Z,11.28
2024-05-09T20:38:03.295Z,10.91
2024-05-09T20:40:34.977Z,11.09
2024-05-09T20:43:05.588Z,11.04
2024-05-09T20:45:33.257Z,11.16
2024-05-09T20:48:00.632Z,10.66
2024-05-09T20:50:36.397Z,10.82
2024-05-09T20:53:09.494Z,11.20
2024-05-09T20:55:36.642Z,10.80
2024-05-09T20:58:03.391Z,10.77
2024-05-09T21:00:38.780Z,10.59
2024-05-09T21:03:09.620Z,10.93
2024-05-09T21:05:36.537Z,10.82
2024-05-09T21:08:03.629Z,10.69
2024-05-09T21:10:33.252Z,10.79
2024-05-09T21:13:02.800Z,10.63
2024-05-09T21:15:30.549Z,10.44
2024-05-09T21:17:57.346Z,10.56
2024-05-09T21:20:30.670Z,10.43
2024-05-09T21:22:59.257Z,10.53
2024-05-09T21:25:26.051Z,10.49
2024-05-09T21:27:53.187Z,10.50
2024-05-09T21:30:31.569Z,10.21
2024-05-09T21:33:08.475Z,10.28
2024-05-09T21:35:35.695Z,10.11
2024-05-09T21:38:02.380Z,10.23
2024-05-09T21:40:34.304Z,9.87
2024-05-09T21:43:03.486Z,10.06
2024-05-09T21:45:30.507Z,9.93
2024-05-09T21:47:57.237Z,9.70
2024-05-09T21:50:31.875Z,9.81
2024-05-09T21:53:05.583Z,9.75
2024-05-09T21:55:32.237Z,9.91
2024-05-09T21:57:58.801Z,9.90
2024-05-09T22:17:57.590Z,9.01
2024-05-09T22:20:33.883Z,9.02
2024-05-09T22:23:04.831Z,9.14
2024-05-09T22:25:32.465Z,9.13
2024-05-09T22:28:01.370Z,9.27
2024-05-09T22:30:35.706Z,9.38
2024-05-09T22:33:07.128Z,9.43
2024-05-09T22:35:34.203Z,9.38
2024-05-09T22:38:02.863Z,9.38
2024-05-09T22:40:38.899Z,9.35
2024-05-09T22:43:14.023Z,9.26
2024-05-09T22:45:41.197Z,9.23
2024-05-09T22:48:09.108Z,9.24
2024-05-09T22:50:36.250Z,9.06
2024-05-09T22:53:03.132Z,9.10
2024-05-09T22:55:30.045Z,9.11
2024-05-09T22:57:57.076Z,9.10
2024-05-09T23:02:53.658Z,8.93
2024-05-09T23:05:20.759Z,8.95
2024-05-09T23:07:47.498Z,8.73
2024-05-09T23:10:21.204Z,8.86
2024-05-09T23:12:55.257Z,8.83
2024-05-09T23:15:22.027Z,8.84
2024-05-09T23:17:48.791Z,8.69
2024-05-09T23:20:21.744Z,8.69
2024-05-09T23:22:55.834Z,8.70
2024-05-09T23:25:22.891Z,8.77
2024-05-09T23:27:49.645Z,8.76
2024-05-09T23:30:28.293Z,8.71
2024-05-09T23:33:02.428Z,8.71
2024-05-09T23:35:29.380Z,8.68
2024-05-09T23:37:56.045Z,8.67
2024-05-09T23:40:24.040Z,8.53
2024-05-09T23:42:56.832Z,8.52
2024-05-09T23:45:23.878Z,8.53
2024-05-09T23:47:50.604Z,8.53
2024-05-09T23:50:23.941Z,8.39
2024-05-09T23:52:58.059Z,8.48
2024-05-09T23:55:24.851Z,8.39
2024-05-09T23:57:51.570Z,8.43
